Time,TemperatureF,DewpointF,PressureIn,WindDirection,WindDirectionDegrees,WindSpeedMPH,WindSpeedGustMPH,Humidity,HourlyPrecipIn,Conditions,Clouds,dailyrainin,SoftwareType,DateUTC
2013-07-21 00:02:00,73.6,72.4,29.96,SSE,162,0.0,0.0,96,0.00,,,0.00,Wunderground v.1.15,2013-07-21 04:02:00,
2013-07-21 00:12:00,73.5,72.3,29.96,SSE,155,0.0,0.0,96,0.00,,,0.00,Wunderground v.1.15,2013-07-21 04:12:00,
2013-07-21 00:22:00,73.5,72.3,29.96,WSW,254,0.0,0.0,96,0.00,,,0.00,Wunderground v.1.15,2013-07-21 04:22:00,
2013-07-21 00:32:00,73.4,72.2,29.96,West,262,0.0,0.0,96,0.00,,,0.00,Wunderground v.1.15,2013-07-21 04:32:00,
2013-07-21 00:42:00,73.2,72.0,29.95,West,262,0.0,0.0,96,0.00,,,0.00,Wunderground v.1.15,2013-07-21 04:42:00,
2013-07-21 00:52:00,73.0,72.1,29.95,West,262,0.0,0.0,97,0.00,,,0.00,Wunderground v.1.15,2013-07-21 04:52:00,
2013-07-21 01:02:00,72.8,71.9,29.95,West,262,0.0,0.0,97,0.00,,,0.00,Wunderground v.1.15,2013-07-21 05:02:00,
2013-07-21 01:12:00,72.8,71.9,29.94,WSW,248,0.0,0.0,97,0.00,,,0.00,Wunderground v.1.15,2013-07-21 05:12:00,
2013-07-21 01:22:00,72.7,71.8,29.94,WSW,246,0.0,0.0,97,0.00,,,0.00,Wunderground v.1.15,2013-07-21 05:22:00,
2013-07-21 01:32:00,72.6,71.7,29.94,SW,234,0.0,0.0,97,0.00,,,0.00,Wunderground v.1.15,2013-07-21 05:32:00,
2013-07-21 01:42:00,72.6,71.7,29.94,SW,235,0.0,0.0,97,0.00,,,0.00,Wunderground v.1.15,2013-07-21 05:42:00,
2013-07-21 01:52:00,72.7,71.8,29.94,SW,235,0.0,0.0,97,0.00,,,0.00,Wunderground v.1.15,2013-07-21 05:52:00,
2013-07-21 02:02:00,72.6,71.7,29.94,SW,235,0.0,0.0,97,0.00,,,0.00,Wunderground v.1.15,2013-07-21 06:02:00,
2013-07-21 02:12:00,72.6,71.7,29.93,SW,235,0.0,0.0,97,0.00,,,0.00,Wunderground v.1.15,2013-07-21 06:12:00,
2013-07-21 02:22:00,72.7,71.8,29.93,WSW,248,0.0,0.0,97,0.00,,,0.00,Wunderground v.1.15,2013-07-21 06:22:00,
2013-07-21 02:32:00,73.0,71.8,29.93,SW,229,0.0,0.0,96,0.00,,,0.00,Wunderground v.1.15,2013-07-21 06:32:00,
2013-07-21 02:42:00,73.1,71.9,29.93,WSW,238,0.0,0.0,96,0.00,,,0.00,Wunderground v.1.15,2013-07-21 06:42:00,
2013-07-21 02:52:00,73.0,71.8,29.93,WSW,238,0.0,0.0,96,0.00,,,0.00,Wunderground v.1.15,2013-07-21 06:52:00,
2013-07-21 03:02:00,72.6,71.4,29.93,WSW,238,0.0,0.0,96,0.00,,,0.00,Wunderground v.1.15,2013-07-21 07:02:00,
2013-07-21 03:12:00,72.5,71.6,29.93,SW,226,0.0,0.0,97,0.00,,,0.00,Wunderground v.1.15,2013-07-21 07:12:00,
2013-07-21 03:22:00,72.5,71.6,29.93,SSW,213,0.0,0.0,97,0.00,,,0.00,Wunderground v.1.15,2013-07-21 07:22:00,
2013-07-21 03:32:00,72.4,71.5,29.93,SW,223,0.0,0.0,97,0.00,,,0.00,Wunderground v.1.15,2013-07-21 07:32:00,
2013-07-21 03:42:00,72.3,71.4,29.93,SW,216,0.0,0.0,97,0.00,,,0.00,Wunderground v.1.15,2013-07-21 07:42:00,
2013-07-21 03:52:00,72.2,71.0,29.92,SW,214,0.0,0.0,96,0.00,,,0.00,Wunderground v.1.15,2013-07-21 07:52:00,
2013-07-21 04:02:00,72.2,71.3,29.92,SSW,208,0.0,0.0,97,0.00,,,0.00,Wunderground v.1.15,2013-07-21 08:02:00,
2013-07-21 04:12:00,72.2,71.3,29.92,WSW,240,0.0,0.0,97,0.00,,,0.00,Wunderground v.1.15,2013-07-21 08:12:00,
2013-07-21 04:22:00,72.1,71.2,29.91,SW,233,0.0,0.0,97,0.00,,,0.00,Wunderground v.1.15,2013-07-21 08:22:00,
2013-07-21 04:32:00,72.1,71.2,29.92,SSW,211,0.0,0.0,97,0.00,,,0.00,Wunderground v.1.15,2013-07-21 08:32:00,
2013-07-21 04:42:00,72.2,71.3,29.92,SW,231,0.0,0.0,97,0.00,,,0.00,Wunderground v.1.15,2013-07-21 08:42:00,
2013-07-21 04:52:00,72.1,71.2,29.92,WSW,238,0.0,0.0,97,0.00,,,0.00,Wunderground v.1.15,2013-07-21 08:52:00,
2013-07-21 05:02:00,72.1,71.2,29.92,SW,232,0.0,0.0,97,0.00,,,0.00,Wunderground v.1.15,2013-07-21 09:02:00,
2013-07-21 05:12:00,72.1,71.2,29.92,SW,227,3.0,3.0,97,0.00,,,0.00,Wunderground v.1.15,2013-07-21 09:12:00,
2013-07-21 05:22:00,72.0,71.1,29.92,SW,229,2.0,2.0,97,0.00,,,0.00,Wunderground v.1.15,2013-07-21 09:22:00,
2013-07-21 05:32:00,72.0,71.1,29.92,SW,216,3.0,4.0,97,0.00,,,0.00,Wunderground v.1.15,2013-07-21 09:32:00,
2013-07-21 05:42:00,72.1,71.2,29.92,SW,229,3.0,3.0,97,0.00,,,0.00,Wunderground v.1.15,2013-07-21 09:42:00,
2013-07-21 05:52:00,72.0,71.1,29.92,SSW,205,2.0,3.0,97,0.00,,,0.00,Wunderground v.1.15,2013-07-21 09:52:00,
2013-07-21 06:02:00,71.9,71.0,29.92,SW,232,3.0,4.0,97,0.00,,,0.00,Wunderground v.1.15,2013-07-21 10:02:00,
2013-07-21 06:12:00,71.8,70.9,29.92,SSW,210,3.0,3.0,97,0.00,,,0.00,Wunderground v.1.15,2013-07-21 10:12:00,
2013-07-21 06:22:00,71.7,70.8,29.92,WSW,240,4.0,4.0,97,0.00,,,0.00,Wunderground v.1.15,2013-07-21 10:22:00,
2013-07-21 06:32:00,71.8,70.9,29.92,SW,232,3.0,3.0,97,0.00,,,0.00,Wunderground v.1.15,2013-07-21 10:32:00,
2013-07-21 06:42:00,71.8,70.9,29.93,South,171,2.0,5.0,97,0.00,,,0.00,Wunderground v.1.15,2013-07-21 10:42:00,
2013-07-21 06:52:00,71.8,70.9,29.92,WSW,247,2.0,4.0,97,0.00,,,0.00,Wunderground v.1.15,2013-07-21 10:52:00,
2013-07-21 07:02:00,71.8,70.9,29.93,SW,214,2.0,2.0,97,0.00,,,0.00,Wunderground v.1.15,2013-07-21 11:02:00,
2013-07-21 07:12:00,72.0,70.8,29.93,SSW,213,2.0,2.0,96,0.00,,,0.00,Wunderground v.1.15,2013-07-21 11:12:00,
2013-07-21 07:22:00,72.2,71.0,29.93,West,272,3.0,3.0,96,0.00,,,0.00,Wunderground v.1.15,2013-07-21 11:22:00,
2013-07-21 07:32:00,72.5,71.3,29.94,WSW,251,3.0,3.0,96,0.00,,,0.00,Wunderground v.1.15,2013-07-21 11:32:00,
2013-07-21 07:42:00,72.7,71.2,29.93,WSW,246,3.0,3.0,95,0.00,,,0.00,Wunderground v.1.15,2013-07-21 11:42:00,
2013-07-21 07:52:00,72.5,71.0,29.94,West,264,2.0,3.0,95,0.00,,,0.00,Wunderground v.1.15,2013-07-21 11:52:00,
2013-07-21 08:02:00,72.3,70.8,29.94,SW,221,3.0,3.0,95,0.00,,,0.00,Wunderground v.1.15,2013-07-21 12:02:00,
2013-07-21 08:12:00,72.6,71.4,29.95,SW,214,2.0,2.0,96,0.00,,,0.00,Wunderground v.1.15,2013-07-21 12:12:00,
2013-07-21 08:22:00,73.5,72.0,29.95,WSW,241,2.0,2.0,95,0.00,,,0.00,Wunderground v.1.15,2013-07-21 12:22:00,
2013-07-21 08:32:00,74.0,72.2,29.95,SW,229,4.0,4.0,94,0.00,,,0.00,Wunderground v.1.15,2013-07-21 12:32:00,
2013-07-21 08:42:00,74.4,72.2,29.95,SW,229,3.0,5.0,93,0.00,,,0.00,Wunderground v.1.15,2013-07-21 12:42:00,
2013-07-21 08:52:00,75.2,73.0,29.95,SW,230,4.0,4.0,93,0.00,,,0.00,Wunderground v.1.15,2013-07-21 12:52:00,
2013-07-21 09:02:00,75.1,72.6,29.95,SSW,203,4.0,4.0,92,0.00,,,0.00,Wunderground v.1.15,2013-07-21 13:02:00,
2013-07-21 09:12:00,75.5,73.3,29.96,SW,231,3.0,3.0,93,0.00,,,0.00,Wunderground v.1.15,2013-07-21 13:12:00,
2013-07-21 09:22:00,75.8,73.3,29.96,SSW,211,2.0,4.0,92,0.00,,,0.00,Wunderground v.1.15,2013-07-21 13:22:00,
2013-07-21 20:02:00,70.5,68.1,29.91,NNE,19,7.0,12.0,92,0.41,,,0.76,Wunderground v.1.15,2013-07-22 00:02:00,
2013-07-21 20:12:00,70.2,68.1,29.92,North,360,7.0,7.0,93,0.05,,,0.76,Wunderground v.1.15,2013-07-22 00:12:00,
2013-07-21 20:22:00,70.5,68.4,29.92,ENE,74,2.0,3.0,93,0.04,,,0.77,Wunderground v.1.15,2013-07-22 00:22:00,
2013-07-21 20:32:00,70.4,68.6,29.92,NE,44,2.0,4.0,94,0.04,,,0.77,Wunderground v.1.15,2013-07-22 00:32:00,
2013-07-21 20:42:00,70.7,69.2,29.91,North,360,3.0,3.0,95,0.23,,,0.81,Wunderground v.1.15,2013-07-22 00:42:00,
2013-07-21 20:52:00,71.0,69.8,29.92,NNW,341,3.0,3.0,96,0.10,,,0.84,Wunderground v.1.15,2013-07-22 00:52:00,
2013-07-21 21:02:00,71.2,70.0,29.93,SSE,163,1.0,3.0,96,0.06,,,0.84,Wunderground v.1.15,2013-07-22 01:02:00,
2013-07-21 21:12:00,71.3,70.1,29.93,South,185,1.0,1.0,96,0.04,,,0.85,Wunderground v.1.15,2013-07-22 01:12:00,
2013-07-21 21:22:00,71.2,70.0,29.93,ESE,112,0.0,1.0,96,0.05,,,0.86,Wunderground v.1.15,2013-07-22 01:22:00,
2013-07-21 21:32:00,71.2,70.0,29.93,South,171,1.0,2.0,96,0.06,,,0.87,Wunderground v.1.15,2013-07-22 01:32:00,
2013-07-21 21:42:00,71.3,70.4,29.94,SW,226,1.0,3.0,97,0.05,,,0.87,Wunderground v.1.15,2013-07-22 01:42:00,
2013-07-21 21:53:00,71.3,70.1,29.94,SSW,197,3.0,3.0,96,0.00,,,0.88,Wunderground v.1.15,2013-07-22 01:53:00,
2013-07-21 22:02:00,70.8,69.6,29.94,WSW,248,3.0,3.0,96,0.00,,,0.88,Wunderground v.1.15,2013-07-22 02:02:00,
2013-07-21 22:12:00,70.5,69.3,29.94,WSW,239,2.0,2.0,96,0.16,,,0.90,Wunderground v.1.15,2013-07-22 02:12:00,
2013-07-21 22:22:00,70.5,69.3,29.94,West,261,2.0,2.0,96,0.09,,,0.91,Wunderground v.1.15,2013-07-22 02:22:00,
2013-07-21 22:33:00,70.4,69.2,29.96,WSW,255,3.0,3.0,96,0.06,,,0.92,Wunderground v.1.15,2013-07-22 02:33:00,
2013-07-21 22:43:00,70.4,69.2,29.96,South,190,2.0,2.0,96,0.12,,,0.94,Wunderground v.1.15,2013-07-22 02:43:00,
2013-07-21 22:53:00,70.5,69.6,29.96,West,259,1.0,2.0,97,0.11,,,0.96,Wunderground v.1.15,2013-07-22 02:53:00,
2013-07-21 23:02:00,70.6,69.7,29.97,WSW,258,1.0,1.0,97,0.05,,,0.97,Wunderground v.1.15,2013-07-22 03:02:00,
2013-07-21 23:13:00,70.6,69.7,29.97,SSW,205,0.0,0.0,97,0.07,,,0.98,Wunderground v.1.15,2013-07-22 03:13:00,
2013-07-21 23:23:00,70.6,69.7,29.97,South,172,0.0,0.0,97,0.08,,,0.99,Wunderground v.1.15,2013-07-22 03:23:00,
2013-07-21 23:32:00,70.5,69.6,29.97,South,172,0.0,0.0,97,0.08,,,1.00,Wunderground v.1.15,2013-07-22 03:32:00,
2013-07-21 23:42:00,70.4,69.5,29.96,South,172,0.0,0.0,97,0.05,,,1.01,Wunderground v.1.15,2013-07-22 03:42:00,
2013-07-21 23:52:00,70.4,69.5,29.96,SSE,165,0.0,0.0,97,0.06,,,1.02,Wunderground v.1.15,2013-07-22 03:52:00,